Time;durP1;ratioP1;P1;durP2;ratioP2;P2;SDS_P1;SDS_P2;PMS_P1;PMS_P2;Temp;Humidity;BMP_temperature;BMP_pressure;BME280_temperature;BME280_humidity;BME280_pressure;Samples;Min_cycle;Max_cycle;Signal;HPM_P1;HPM_P2
2020/12/30 00:00:08;;;;;;;8.95;4.55;;;;;;;2.10;81.38;99291.38;1695758;82;21133;-77
2020/12/30 00:02:35;;;;;;;6.97;3.95;;;;;;;2.09;81.36;99293.50;1676145;83;21116;-77
2020/12/30 00:05:05;;;;;;;8.53;4.15;;;;;;;2.04;81.36;99293.13;1701857;83;21089;-77
2020/12/30 00:07:35;;;;;;;6.83;3.67;;;;;;;2.01;81.41;99296.95;1698142;83;21115;-77
2020/12/30 00:10:07;;;;;;;6.97;3.85;;;;;;;1.99;81.37;99304.61;1712891;81;21563;-77
2020/12/30 00:12:34;;;;;;;8.73;4.45;;;;;;;1.95;81.33;99308.02;1704196;83;21161;-77
2020/12/30 00:15:00;;;;;;;;;;;;;;;1.89;81.35;99308.88;1706631;83;21096;-77
2020/12/30 00:17:26;;;;;;;7.22;4.05;;;;;;;1.89;81.45;99311.86;1705781;83;20280;-78
2020/12/30 00:19:53;;;;;;;14.05;5.20;;;;;;;1.83;81.41;99310.16;1689596;83;21119;-78
2020/12/30 00:22:19;;;;;;;8.05;5.12;;;;;;;1.81;81.41;99325.03;1705305;83;25192;-78
2020/12/30 00:24:46;;;;;;;14.33;5.75;;;;;;;1.79;81.49;99326.73;1733126;82;21549;-78
2020/12/30 00:27:12;;;;;;;11.83;5.60;;;;;;;1.77;81.46;99333.53;1678976;83;21121;-80
2020/12/30 00:29:38;;;;;;;;;;;;;;;1.73;81.47;99326.74;1726290;82;21164;-78
2020/12/30 00:32:10;;;;;;;8.48;4.87;;;;;;;1.71;81.46;99332.27;1726518;82;20211;-77
2020/12/30 00:34:37;;;;;;;8.50;4.75;;;;;;;1.69;81.45;99331.42;1722001;82;21286;-77
2020/12/30 00:37:03;;;;;;;9.83;5.30;;;;;;;1.66;81.48;99333.55;1716060;82;21085;-77
2020/12/30 00:39:30;;;;;;;10.82;5.30;;;;;;;1.64;81.49;99336.09;1698056;83;21988;-77
2020/12/30 00:41:58;;;;;;;10.85;5.50;;;;;;;1.62;81.50;99349.68;1726241;82;20989;-77
2020/12/30 00:44:24;;;;;;;6.55;4.87;;;;;;;1.61;81.49;99354.34;1698517;84;21074;-77
2020/12/30 00:46:56;;;;;;;9.90;5.03;;;;;;;1.59;81.49;99357.33;1682526;82;21378;-77
2020/12/30 00:49:23;;;;;;;9.25;5.20;;;;;;;1.58;81.48;99356.89;1676778;83;20975;-77
2020/12/30 00:51:55;;;;;;;10.30;5.15;;;;;;;1.55;81.50;99353.95;1681760;84;27198;-77
2020/12/30 00:54:22;;;;;;;9.03;5.12;;;;;;;1.55;81.55;99362.02;1682899;82;21649;-77
2020/12/30 00:56:49;;;;;;;9.33;5.17;;;;;;;1.54;81.52;99364.14;1695164;84;21140;-77
2020/12/30 00:59:16;;;;;;;13.98;4.95;;;;;;;1.54;81.51;99369.24;1683188;83;21242;-77
2020/12/30 01:01:43;;;;;;;8.25;4.55;;;;;;;1.51;81.50;99370.09;1691972;84;21508;-77
2020/12/30 01:04:09;;;;;;;9.40;4.62;;;;;;;1.50;81.52;99381.13;1690649;82;21753;-77
2020/12/30 01:06:36;;;;;;;;;;;;;;;1.49;81.49;99380.70;1682831;84;21074;-77
2020/12/30 01:09:06;;;;;;;9.35;4.22;;;;;;;1.49;81.53;99386.22;1690791;83;20253;-77
2020/12/30 01:11:33;;;;;;;7.15;4.10;;;;;;;1.48;81.50;99379.42;1685985;83;21878;-77
2020/12/30 01:13:59;;;;;;;11.83;5.22;;;;;;;1.45;81.50;99384.09;1683273;84;21212;-77
2020/12/30 01:16:26;;;;;;;9.28;4.58;;;;;;;1.45;81.51;99392.16;1674714;84;22086;-77
2020/12/30 01:18:52;;;;;;;;;;;;;;;1.43;81.50;99390.03;1689256;82;21200;-77
2020/12/30 01:21:18;;;;;;;7.62;4.25;;;;;;;1.40;81.50;99390.03;1703006;84;20311;-77
2020/12/30 01:23:44;;;;;;;7.97;4.62;;;;;;;1.40;81.52;99392.16;1682724;84;21237;-77
2020/12/30 01:26:11;;;;;;;10.83;5.63;;;;;;;1.38;81.50;99382.81;1679481;83;21424;-77
2020/12/30 01:28:37;;;;;;;8.50;4.42;;;;;;;1.35;81.50;99382.38;1684113;82;21203;-78
2020/12/30 01:31:04;;;;;;;9.47;4.83;;;;;;;1.35;81.54;99380.26;1662847;83;21679;-78
2020/12/30 01:33:30;;;;;;;14.38;4.58;;;;;;;1.33;81.54;99380.25;1684474;82;21401;-78
2020/12/30 01:35:56;;;;;;;10.05;4.67;;;;;;;1.30;81.50;99379.83;1674484;84;21254;-78
2020/12/30 01:38:22;;;;;;;9.87;4.70;;;;;;;1.29;81.49;99385.77;1645998;85;21647;-78
2020/12/30 01:40:55;;;;;;;11.95;4.17;;;;;;;1.25;81.44;99382.79;1670370;84;21032;-78
2020/12/30 01:43:22;;;;;;;10.72;4.83;;;;;;;1.22;81.43;99382.78;1683824;84;21160;-77
2020/12/30 01:45:52;;;;;;;9.03;4.40;;;;;;;1.19;81.50;99371.75;1678969;84;26703;-77
2020/12/30 01:48:22;;;;;;;8.55;4.85;;;;;;;1.18;81.52;99384.05;1687155;82;22451;-77
2020/12/30 01:50:48;;;;;;;7.92;4.17;;;;;;;1.15;81.51;99390.41;1675945;84;21231;-77
2020/12/30 01:53:16;;;;;;;9.33;4.37;;;;;;;1.11;81.43;99393.37;1677573;83;21192;-77
2020/12/30 01:55:42;;;;;;;9.08;5.03;;;;;;;1.08;81.45;99397.59;1687033;83;21639;-77
2020/12/30 01:58:10;;;;;;;8.93;4.58;;;;;;;1.05;81.45;99406.08;1672380;84;21495;-77
2020/12/30 02:00:37;;;;;;;8.38;4.75;;;;;;;1.02;81.45;99410.34;1682808;82;22266;-77
2020/12/30 02:03:05;;;;;;;7.78;4.20;;;;;;;0.97;81.44;99409.05;1692292;84;21165;-77
2020/12/30 02:05:32;;;;;;;6.55;3.70;;;;;;;0.93;81.40;99415.83;1676559;84;21209;-77
2020/12/30 02:07:59;;;;;;;8.38;4.55;;;;;;;0.88;81.45;99425.14;1687271;82;21743;-77
2020/12/30 02:10:28;;;;;;;7.75;3.52;;;;;;;0.85;81.49;99431.48;1679558;83;21102;-77
2020/12/30 02:12:59;;;;;;;7.58;4.47;;;;;;;0.83;81.53;99433.17;1682183;84;21483;-77
2020/12/30 02:15:31;;;;;;;8.35;4.47;;;;;;;0.81;81.49;99432.32;1691573;84;21225;-77
2020/12/30 02:17:58;;;;;;;9.78;4.00;;;;;;;0.78;81.49;99432.30;1675947;84;21584;-77
2020/12/30 02:20:25;;;;;;;10.55;4.60;;;;;;;0.75;81.57;99434.84;1692390;82;22264;-77
2020/12/30 02:23:03;;;;;;;;;;;;;;;0.73;81.57;99433.98;1676196;84;21130;-77
2020/12/30 02:25:29;;;;;;;7.70;4.35;;;;;;;0.71;81.55;99441.17;1679410;84;21252;-77
2020/12/30 02:27:55;;;;;;;9.00;4.20;;;;;;;0.72;81.68;99442.45;1674046;84;21145;-77
2020/12/30 02:30:21;;;;;;;5.35;3.62;;;;;;;0.71;81.64;99446.27;1694508;84;20987;-77
2020/12/30 02:32:47;;;;;;;7.75;4.35;;;;;;;0.71;81.70;99449.66;1685582;84;20946;-77
2020/12/30 02:35:22;;;;;;;9.38;3.72;;;;;;;0.72;81.69;99447.54;1684646;84;20951;-77
2020/12/30 02:37:48;;;;;;;6.22;4.12;;;;;;;0.72;81.66;99451.36;1690368;83;21232;-77
2020/12/30 02:40:14;;;;;;;6.67;3.75;;;;;;;0.72;81.65;99451.36;1687786;83;21638;-77
2020/12/30 02:42:39;;;;;;;6.80;3.85;;;;;;;0.70;81.58;99449.65;1690520;83;21003;-77
2020/12/30 02:45:08;;;;;;;6.10;4.13;;;;;;;0.66;81.53;99451.33;1703231;83;21587;-77
2020/12/30 02:47:34;;;;;;;5.67;3.80;;;;;;;0.63;81.53;99453.85;1675043;84;21116;-77
2020/12/30 02:50:03;;;;;;;5.35;3.40;;;;;;;0.60;81.58;99452.14;1688762;82;22406;-77
2020/12/30 02:52:29;;;;;;;6.85;4.22;;;;;;;0.58;81.67;99453.83;1680766;84;21149;-77
2020/12/30 02:54:55;;;;;;;7.22;4.17;;;;;;;0.58;81.72;99460.19;1694634;82;21082;-76
2020/12/30 02:57:21;;;;;;;8.73;4.17;;;;;;;0.58;81.71;99456.38;1678246;82;21038;-76
2020/12/30 02:59:48;;;;;;;6.85;4.00;;;;;;;0.61;81.76;99464.44;1699545;82;21447;-76
2020/12/30 03:02:14;;;;;;;9.03;4.53;;;;;;;0.62;81.74;99460.63;1688213;84;22309;-76
2020/12/30 03:04:39;;;;;;;5.10;3.52;;;;;;;0.63;81.74;99457.67;1683290;84;21111;-76
2020/12/30 03:07:05;;;;;;;9.10;3.87;;;;;;;0.63;81.70;99456.39;1703440;83;20984;-76
2020/12/30 03:09:31;;;;;;;5.60;3.67;;;;;;;0.64;81.72;99458.09;1680022;84;20938;-77
2020/12/30 03:11:57;;;;;;;5.65;3.75;;;;;;;0.64;81.74;99447.92;1685736;84;21056;-77
2020/12/30 03:14:23;;;;;;;8.30;4.05;;;;;;;0.65;81.75;99446.66;1675488;84;21169;-77
2020/12/30 03:16:49;;;;;;;7.65;3.40;;;;;;;0.67;81.73;99445.39;1690045;84;21508;-77
2020/12/30 03:19:15;;;;;;;5.53;3.73;;;;;;;0.67;81.75;99441.58;1659580;84;20978;-77
2020/12/30 03:21:41;;;;;;;7.10;3.87;;;;;;;0.69;81.75;99435.23;1674258;84;21589;-77
2020/12/30 03:24:07;;;;;;;7.80;4.10;;;;;;;0.70;81.79;99435.66;1686738;83;20990;-77
2020/12/30 03:26:34;;;;;;;6.17;4.00;;;;;;;0.71;81.62;99434.39;1679388;84;22381;-77
2020/12/30 03:29:01;;;;;;;10.00;4.00;;;;;;;0.72;81.80;99439.06;1677926;84;21109;-77
2020/12/30 03:31:29;;;;;;;7.05;4.15;;;;;;;0.72;81.78;99439.91;1677060;84;21626;-77
2020/12/30 03:33:57;;;;;;;7.62;3.47;;;;;;;0.71;81.72;99438.63;1443124;84;20012212;-77
2020/12/30 03:36:22;;;;;;;8.55;4.10;;;;;;;0.72;81.78;99439.06;1683766;83;20953;-77
2020/12/30 03:38:49;;;;;;;5.65;4.42;;;;;;;0.70;81.70;99441.59;1677151;83;21426;-77
2020/12/30 03:41:15;;;;;;;8.40;4.10;;;;;;;0.68;81.64;99447.09;1684990;83;21528;-77
2020/12/30 03:43:41;;;;;;;6.97;4.37;;;;;;;0.65;81.59;99455.56;1675511;83;21076;-77
2020/12/30 03:46:07;;;;;;;7.22;4.10;;;;;;;0.61;81.62;99452.99;1679504;83;21219;-77
2020/12/30 03:48:33;;;;;;;9.30;4.10;;;;;;;0.47;81.60;99454.22;1673377;83;21004;-77
2020/12/30 03:50:59;;;;;;;8.05;3.98;;;;;;;0.47;81.60;99454.22;1699413;83;21801;-76
2020/12/30 03:53:26;;;;;;;6.75;4.08;;;;;;;0.45;81.62;99451.23;1668056;83;21210;-77
2020/12/30 03:55:52;;;;;;;;;;;;;;;0.39;81.59;99449.50;1662385;83;22140;-77
2020/12/30 03:58:17;;;;;;;;;;;;;;;0.36;81.62;99452.03;1661926;83;20217;-77
2020/12/30 04:00:43;;;;;;;9.03;4.27;;;;;;;0.33;81.77;99443.11;1679210;83;20197;-77
2020/12/30 04:03:09;;;;;;;10.43;4.43;;;;;;;0.30;81.76;99443.94;1695357;83;21055;-77
2020/12/30 04:05:35;;;;;;;9.38;4.37;;;;;;;0.30;81.86;99443.09;1668591;83;21153;-77
2020/12/30 04:08:01;;;;;;;8.23;4.15;;;;;;;0.29;81.79;99446.47;1680273;83;21443;-77
2020/12/30 04:10:27;;;;;;;7.97;4.45;;;;;;;0.26;81.76;99444.77;1700338;83;20961;-77
2020/12/30 04:12:53;;;;;;;8.20;4.43;;;;;;;0.23;81.71;99448.97;1700847;83;21173;-76
2020/12/30 04:15:18;;;;;;;7.40;4.03;;;;;;;0.20;81.66;99446.41;1671686;83;21359;-77
2020/12/30 04:17:44;;;;;;;8.70;4.90;;;;;;;0.15;81.74;99450.19;1683075;83;21677;-77
2020/12/30 04:20:10;;;;;;;7.67;4.47;;;;;;;0.12;81.76;99446.77;1667205;83;21256;-76
2020/12/30 04:22:36;;;;;;;6.73;3.73;;;;;;;0.12;81.79;99450.59;1660614;83;21216;-76
2020/12/30 04:25:03;;;;;;;9.97;4.87;;;;;;;0.08;81.74;99446.32;1662998;83;22385;-77
2020/12/30 04:27:29;;;;;;;8.50;4.20;;;;;;;0.07;81.70;99452.24;1676460;84;21254;-77
2020/12/30 04:29:55;;;;;;;6.97;3.90;;;;;;;0.02;81.65;99458.56;1696303;83;21234;-77
2020/12/30 04:32:21;;;;;;;6.35;4.55;;;;;;;-0.04;81.59;99459.39;1698816;83;21198;-77
2020/12/30 04:34:47;;;;;;;8.15;4.10;;;;;;;-0.12;81.55;99461.44;1659668;83;21217;-76
2020/12/30 04:37:13;;;;;;;6.12;2.67;;;;;;;-0.21;81.59;99463.48;1660602;83;21730;-76
2020/12/30 04:39:40;;;;;;;12.20;4.90;;;;;;;-0.25;81.72;99464.29;1678796;83;21263;-76
2020/12/30 04:42:08;;;;;;;7.83;4.45;;;;;;;-0.27;81.74;99458.34;1663066;84;21276;-76
2020/12/30 04:44:39;;;;;;;10.82;4.45;;;;;;;-0.28;81.74;99462.14;1659364;84;21255;-77
2020/12/30 04:47:05;;;;;;;9.20;4.40;;;;;;;-0.33;81.74;99460.83;1672498;84;21146;-76
2020/12/30 04:49:32;;;;;;;5.25;3.67;;;;;;;-0.37;81.71;99474.34;1648328;84;21142;-76
2020/12/30 04:51:59;;;;;;;8.63;4.50;;;;;;;-0.40;81.73;99476.84;1655913;84;21482;-76
2020/12/30 04:54:26;;;;;;;7.03;4.53;;;;;;;-0.44;81.69;99472.57;1656856;84;21516;-76
2020/12/30 04:57:01;;;;;;;11.08;5.22;;;;;;;-0.47;81.70;99473.81;1659870;84;26698;-76
2020/12/30 04:59:43;;;;;;;10.58;5.20;;;;;;;-0.51;81.75;99470.39;1665114;85;21195;-76
2020/12/30 05:02:11;;;;;;;13.48;5.78;;;;;;;-0.56;81.76;99470.80;1655574;84;21635;-76
2020/12/30 05:04:39;;;;;;;9.95;6.12;;;;;;;-0.58;81.84;99472.88;1658342;84;21143;-77
2020/12/30 05:07:12;;;;;;;11.97;6.85;;;;;;;-0.60;81.82;99472.86;1650580;84;21126;-76
2020/12/30 05:09:40;;;;;;;8.93;6.62;;;;;;;-0.63;81.82;99469.03;1667507;84;21164;-76
2020/12/30 05:12:16;;;;;;;9.38;5.58;;;;;;;-0.65;81.78;99478.73;1671494;84;21789;-76
2020/12/30 05:14:43;;;;;;;9.25;5.55;;;;;;;-0.68;81.78;99476.59;1647837;84;21131;-76
2020/12/30 05:17:11;;;;;;;11.93;6.28;;;;;;;-0.72;81.76;99479.08;1654185;84;21170;-76
2020/12/30 05:19:37;;;;;;;9.70;5.45;;;;;;;-0.74;81.81;99479.48;1672743;84;21627;-76
2020/12/30 05:22:04;;;;;;;10.88;5.53;;;;;;;-0.77;81.79;99487.05;1667238;84;21143;-76
2020/12/30 05:24:31;;;;;;;10.80;5.37;;;;;;;-0.78;81.87;99495.09;1660494;84;21119;-76
2020/12/30 05:26:59;;;;;;;11.65;5.50;;;;;;;-0.80;81.85;99491.68;1650784;84;21125;-76
2020/12/30 05:29:27;;;;;;;12.43;4.95;;;;;;;-0.81;81.92;99496.32;1666107;84;21131;-76
2020/12/30 05:31:55;;;;;;;7.55;5.17;;;;;;;-0.82;81.92;99498.42;1673924;84;21139;-77
2020/12/30 05:34:23;;;;;;;7.97;4.97;;;;;;;-0.82;81.92;99497.57;1662199;84;22457;-76
2020/12/30 05:36:51;;;;;;;8.43;5.22;;;;;;;-0.82;81.92;99506.03;1665430;84;21904;-76
2020/12/30 05:39:33;;;;;;;8.48;5.45;;;;;;;-0.84;81.95;99502.62;1666082;84;21576;-76
2020/12/30 05:42:18;;;;;;;7.22;4.55;;;;;;;-0.84;81.92;99506.44;1671994;84;21111;-76
2020/12/30 05:44:48;;;;;;;9.80;4.83;;;;;;;-0.84;81.95;99514.05;1678261;84;21151;-76
2020/12/30 05:47:21;;;;;;;7.58;5.05;;;;;;;-0.85;81.99;99513.61;1667245;84;21215;-76
2020/12/30 05:49:49;;;;;;;9.28;4.65;;;;;;;-0.88;81.87;99518.66;1660735;84;21201;-76
2020/12/30 05:52:26;;;;;;;8.93;5.58;;;;;;;-0.93;81.82;99525.35;1668051;84;21150;-76
2020/12/30 05:55:02;;;;;;;7.00;5.05;;;;;;;-0.99;81.79;99520.20;1672304;83;21126;-77
2020/12/30 05:57:33;;;;;;;4.85;3.70;;;;;;;-1.00;81.93;99527.38;1671294;84;21108;-76
2020/12/30 06:00:10;;;;;;;9.10;4.90;;;;;;;-1.01;82.01;99523.13;1672310;84;21402;-76
2020/12/30 06:02:40;;;;;;;9.90;5.28;;;;;;;-1.01;82.03;99528.20;1670263;84;21183;-76
2020/12/30 06:05:13;;;;;;;9.15;5.20;;;;;;;-1.03;81.94;99536.21;1673401;84;21142;-76
2020/12/30 06:07:48;;;;;;;10.48;5.58;;;;;;;-1.03;82.04;99538.33;1662922;84;21148;-76
2020/12/30 06:10:19;;;;;;;12.35;5.65;;;;;;;-1.02;82.05;99540.04;1661021;84;21126;-76
2020/12/30 06:12:58;;;;;;;14.95;6.30;;;;;;;-1.02;82.09;99551.45;1663508;84;21897;-76
2020/12/30 06:15:26;;;;;;;13.40;6.50;;;;;;;-1.01;82.08;99548.09;1667430;84;21134;-76
2020/12/30 06:18:06;;;;;;;15.08;6.10;;;;;;;-0.99;82.14;99551.91;1674390;84;21127;-76
2020/12/30 06:20:39;;;;;;;11.57;5.12;;;;;;;-1.00;81.98;99565.43;1672252;84;21563;-76
2020/12/30 06:23:14;;;;;;;12.85;6.62;;;;;;;-1.06;81.92;99566.23;1674317;84;21894;-76
2020/12/30 06:25:43;;;;;;;10.80;6.40;;;;;;;-1.08;82.06;99558.16;1664194;84;21546;-76
2020/12/30 06:28:15;;;;;;;14.73;6.25;;;;;;;-1.09;82.01;99567.45;1662780;84;21004;-76
2020/12/30 06:30:45;;;;;;;19.25;7.42;;;;;;;-1.10;82.08;99566.17;1677240;84;21124;-76
2020/12/30 06:33:12;;;;;;;15.20;6.62;;;;;;;-1.11;82.03;99570.80;1672122;84;21117;-76
2020/12/30 06:35:41;;;;;;;16.85;7.28;;;;;;;-1.11;82.07;99569.53;1681410;84;21143;-76
2020/12/30 06:38:29;;;;;;;11.80;6.45;;;;;;;-1.11;82.04;99566.58;1669313;84;21164;-76
2020/12/30 06:41:07;;;;;;;16.23;6.72;;;;;;;-1.13;81.97;99566.98;1671321;84;21131;-76
2020/12/30 06:43:43;;;;;;;10.08;5.90;;;;;;;-1.14;82.09;99561.47;1658328;84;21457;-76
2020/12/30 06:46:11;;;;;;;12.60;6.90;;;;;;;-1.13;82.08;99565.70;1659459;84;21143;-76
2020/12/30 06:48:58;;;;;;;16.20;7.75;;;;;;;-1.12;82.18;99562.34;1644515;84;21117;-77
2020/12/30 06:51:25;;;;;;;14.93;6.53;;;;;;;-1.09;82.20;99564.92;1653405;84;21422;-77
2020/12/30 06:53:53;;;;;;;21.80;8.00;;;;;;;-1.07;82.20;99566.20;1657473;84;21118;-76
2020/12/30 06:56:42;;;;;;;17.17;6.75;;;;;;;-1.06;82.18;99571.72;1657186;84;21155;-76
2020/12/30 06:59:17;;;;;;;17.37;6.70;;;;;;;-1.07;82.14;99570.87;1651587;84;21650;-76
2020/12/30 07:02:01;;;;;;;11.57;6.70;;;;;;;-1.07;82.11;99581.43;1656752;84;21142;-76
2020/12/30 07:04:30;;;;;;;12.68;6.37;;;;;;;-1.08;82.06;99589.45;1652769;84;21708;-76
2020/12/30 07:06:57;;;;;;;10.25;5.55;;;;;;;-1.09;82.01;99584.36;1660660;84;21150;-76
2020/12/30 07:09:34;;;;;;;;;;;;;;;-1.11;82.01;99588.56;1661405;85;21521;-77
2020/12/30 07:12:03;;;;;;;16.42;7.20;;;;;;;-1.14;82.02;99589.36;1653910;84;20251;-76
2020/12/30 07:14:31;;;;;;;11.75;6.47;;;;;;;-1.13;82.18;99595.30;1652587;84;21121;-77
2020/12/30 07:17:01;;;;;;;12.43;6.58;;;;;;;-1.10;82.19;99594.07;1629949;86;21342;-77
2020/12/30 07:19:36;;;;;;;14.13;6.75;;;;;;;-1.08;82.22;99605.94;1657645;84;21700;-77
2020/12/30 07:22:12;;;;;;;9.75;5.85;;;;;;;-1.05;82.24;99607.26;1658959;84;21137;-77
2020/12/30 07:24:49;;;;;;;12.35;6.60;;;;;;;-1.00;82.22;99613.22;1633950;86;21212;-77
2020/12/30 07:27:16;;;;;;;13.88;7.55;;;;;;;-0.98;82.29;99607.31;1663212;84;21735;-77
2020/12/30 07:29:44;;;;;;;16.82;8.15;;;;;;;-0.93;82.30;99601.89;1657577;84;21218;-77
2020/12/30 07:32:11;;;;;;;20.02;12.45;;;;;;;-0.93;82.18;99598.94;1659044;84;21031;-77
2020/12/30 07:34:48;;;;;;;15.28;8.45;;;;;;;-0.90;82.33;99603.20;1656403;84;21225;-77
2020/12/30 07:37:16;;;;;;;15.83;7.87;;;;;;;-0.82;82.48;99605.01;1656350;84;21209;-77
2020/12/30 07:39:47;;;;;;;14.15;6.50;;;;;;;-0.74;82.42;99601.30;1659456;84;21178;-74
2020/12/30 07:42:27;;;;;;;13.08;7.50;;;;;;;-0.70;82.37;99603.05;1669607;84;21213;-76
2020/12/30 07:44:53;;;;;;;17.87;9.60;;;;;;;-0.68;82.32;99604.78;1689297;84;21161;-77
2020/12/30 07:47:22;;;;;;;14.20;8.60;;;;;;;-0.68;82.24;99606.05;1690273;84;21014;-76
2020/12/30 07:49:49;;;;;;;11.85;7.78;;;;;;;-0.65;82.36;99611.58;1693893;84;21626;-76
2020/12/30 07:52:15;;;;;;;17.05;9.05;;;;;;;-0.59;82.37;99617.15;1693595;83;21162;-75
2020/12/30 07:54:41;;;;;;;15.45;8.58;;;;;;;-0.54;82.40;99621.88;1664743;84;21201;-75
2020/12/30 07:57:10;;;;;;;18.12;8.23;;;;;;;-0.49;82.38;99626.56;1688216;84;21012;-75
2020/12/30 07:59:42;;;;;;;15.45;7.92;;;;;;;-0.43;82.40;99625.37;1679223;84;21150;-75
2020/12/30 08:02:17;;;;;;;14.05;7.33;;;;;;;-0.40;82.30;99629.21;1677490;84;21122;-76
2020/12/30 08:04:45;;;;;;;10.50;6.78;;;;;;;-0.39;82.28;99635.58;1687278;84;21095;-76
2020/12/30 08:09:45;;;;;;;11.97;7.47;;;;;;;-0.20;82.48;99637.07;1817049;77;22663;-76
2020/12/30 08:12:14;;;;;;;19.42;8.10;;;;;;;-0.18;82.48;99638.80;1798402;79;21021;-75
2020/12/30 08:14:43;;;;;;;15.23;8.18;;;;;;;-0.13;82.44;99639.70;1796342;79;21484;-74
2020/12/30 08:17:16;;;;;;;13.10;7.58;;;;;;;-0.08;82.42;99638.48;1795807;79;21547;-76
2020/12/30 08:19:51;;;;;;;10.58;7.47;;;;;;;-0.04;82.47;99641.08;1793285;78;21080;-76
2020/12/30 08:22:20;;;;;;;12.88;7.90;;;;;;;0.00;82.43;99641.96;1796613;79;21181;-76
2020/12/30 08:24:52;;;;;;;15.98;7.92;;;;;;;0.02;82.39;99644.48;1804075;78;21525;-77
2020/12/30 08:27:24;;;;;;;15.40;8.73;;;;;;;0.03;82.35;99644.92;1796038;79;21196;-77
2020/12/30 08:29:51;;;;;;;16.32;10.08;;;;;;;0.05;82.39;99644.52;1794070;78;21488;-77
2020/12/30 08:32:34;;;;;;;25.48;10.63;;;;;;;0.06;82.39;99642.41;1806975;79;21184;-77
2020/12/30 08:35:16;;;;;;;17.52;9.80;;;;;;;0.10;82.46;99646.27;1801358;79;21181;-77
2020/12/30 08:37:49;;;;;;;15.50;8.80;;;;;;;0.16;82.55;99644.22;1807537;78;21162;-76
2020/12/30 08:40:30;;;;;;;21.25;8.95;;;;;;;0.22;82.57;99653.17;1803847;79;21255;-76
2020/12/30 08:43:21;;;;;;;16.40;9.35;;;;;;;0.23;82.52;99648.11;1783545;78;21202;-76
2020/12/30 08:45:58;;;;;;;16.30;9.33;;;;;;;0.30;82.58;99652.83;1775536;78;21122;-76
2020/12/30 08:48:30;;;;;;;17.05;9.03;;;;;;;0.36;82.61;99654.16;1776491;79;21213;-76
2020/12/30 08:50:56;;;;;;;13.22;8.35;;;;;;;0.39;82.58;99656.73;1747184;80;21715;-76
2020/12/30 08:53:37;;;;;;;15.88;9.13;;;;;;;0.44;82.59;99655.09;1778929;79;21328;-76
2020/12/30 08:56:06;;;;;;;16.32;9.53;;;;;;;0.51;82.65;99658.55;1748331;80;21223;-76
2020/12/30 08:58:33;;;;;;;20.60;10.53;;;;;;;0.58;82.65;99662.39;1779121;79;21210;-75
2020/12/30 09:00:59;;;;;;;18.40;9.98;;;;;;;0.62;82.63;99664.13;1779139;79;21585;-77
2020/12/30 09:03:28;;;;;;;18.77;11.20;;;;;;;0.66;82.62;99662.05;1779673;79;21193;-76
2020/12/30 09:05:57;;;;;;;22.90;10.75;;;;;;;0.71;82.61;99658.69;1778935;79;22820;-76
2020/12/30 09:08:29;;;;;;;18.87;10.05;;;;;;;0.73;82.62;99658.28;1780781;79;21193;-76
2020/12/30 09:10:57;;;;;;;16.57;9.45;;;;;;;0.76;82.61;99660.43;1788913;79;21694;-76
2020/12/30 09:13:29;;;;;;;22.85;11.65;;;;;;;0.81;82.65;99663.86;1783215;79;21712;-76
2020/12/30 09:16:04;;;;;;;25.62;13.10;;;;;;;0.88;82.73;99664.34;1783731;78;21607;-76
2020/12/30 09:18:31;;;;;;;24.77;13.32;;;;;;;0.99;82.81;99664.43;1768811;79;21425;-76
2020/12/30 09:20:57;;;;;;;22.25;11.73;;;;;;;1.12;82.89;99666.19;1789801;79;21130;-76
2020/12/30 09:23:24;;;;;;;25.60;12.53;;;;;;;1.23;82.85;99672.20;1759985;81;21126;-76
2020/12/30 09:25:52;;;;;;;21.95;11.28;;;;;;;1.32;82.80;99672.27;1774370;78;21406;-76
2020/12/30 09:28:21;;;;;;;20.92;11.18;;;;;;;1.40;82.82;99666.36;1788965;79;21094;-76
2020/12/30 09:30:52;;;;;;;23.02;12.43;;;;;;;1.48;82.79;99678.30;1756482;78;21152;-76
2020/12/30 09:33:22;;;;;;;26.50;13.32;;;;;;;1.57;82.81;99677.47;1778766;79;21040;-76
2020/12/30 09:35:48;;;;;;;36.73;15.60;;;;;;;1.69;82.87;99676.25;1788664;80;21178;-76
2020/12/30 09:38:19;;;;;;;;;;;;;;;1.80;82.88;99675.03;1791311;79;21202;-76
2020/12/30 09:40:48;;;;;;;23.38;11.55;;;;;;;1.90;82.86;99671.67;1788797;80;21029;-76
2020/12/30 09:43:18;;;;;;;18.15;10.40;;;;;;;1.98;82.80;99671.28;1789193;78;21622;-76
2020/12/30 09:45:47;;;;;;;20.70;10.78;;;;;;;2.05;82.78;99668.33;1757022;81;21200;-76
2020/12/30 09:48:16;;;;;;;21.23;11.03;;;;;;;2.12;82.75;99673.42;1786236;80;21114;-76
2020/12/30 09:50:44;;;;;;;21.93;10.75;;;;;;;2.19;82.79;99666.64;1789018;80;21110;-76
2020/12/30 09:53:11;;;;;;;21.68;10.70;;;;;;;2.26;82.76;99665.81;1792262;78;21100;-76
2020/12/30 09:55:37;;;;;;;;;;;;;;;2.29;82.70;99661.98;1795851;79;21436;-76
2020/12/30 09:58:04;;;;;;;24.75;11.90;;;;;;;2.37;82.71;99667.11;1789883;79;20470;-76
2020/12/30 10:00:31;;;;;;;20.70;11.83;;;;;;;2.42;82.76;99664.99;1790804;80;21094;-76
2020/12/30 10:02:56;;;;;;;21.90;11.60;;;;;;;2.48;82.77;99656.50;1789664;80;21186;-76
2020/12/30 10:05:23;;;;;;;17.07;8.20;;;;;;;2.55;82.75;99658.20;1777965;80;20971;-76
2020/12/30 10:07:49;;;;;;;20.30;10.90;;;;;;;2.61;82.70;99657.76;1789084;80;21188;-76
2020/12/30 10:10:15;;;;;;;17.77;10.00;;;;;;;2.68;82.70;99655.20;1745984;80;21024;-76
2020/12/30 10:12:41;;;;;;;18.15;10.78;;;;;;;2.75;82.63;99649.26;1742565;81;20929;-76
2020/12/30 10:15:12;;;;;;;21.45;11.25;;;;;;;2.80;82.57;99650.11;1742524;80;21191;-76
2020/12/30 10:17:39;;;;;;;25.05;12.10;;;;;;;2.84;82.55;99648.83;1732133;82;21501;-76
2020/12/30 10:20:08;;;;;;;25.25;11.65;;;;;;;2.89;82.53;99646.28;1741619;80;21280;-76
2020/12/30 10:22:34;;;;;;;24.45;11.10;;;;;;;2.93;82.53;99643.72;1747532;81;21722;-76
2020/12/30 10:25:00;;;;;;;27.80;11.12;;;;;;;2.98;82.52;99639.89;1741080;81;21222;-76
2020/12/30 10:27:27;;;;;;;17.17;9.80;;;;;;;3.03;82.50;99639.88;1724141;82;21711;-76
2020/12/30 10:29:53;;;;;;;23.00;11.65;;;;;;;3.07;82.45;99639.03;1743648;82;21194;-76
2020/12/30 10:32:19;;;;;;;23.22;11.38;;;;;;;3.11;82.44;99635.62;1743863;82;21041;-76
2020/12/30 10:34:45;;;;;;;21.50;10.77;;;;;;;3.14;82.41;99630.05;1744039;82;20944;-76
2020/12/30 10:37:11;;;;;;;24.83;11.23;;;;;;;3.19;82.43;99628.33;1744184;82;21582;-76
2020/12/30 10:39:37;;;;;;;21.40;10.80;;;;;;;3.23;82.43;99627.48;1744409;82;20945;-76
2020/12/30 10:42:04;;;;;;;22.37;11.33;;;;;;;3.28;82.40;99619.37;1744036;82;21150;-76
2020/12/30 10:44:34;;;;;;;17.92;10.65;;;;;;;3.31;82.38;99619.37;1740007;81;21249;-76
2020/12/30 10:47:00;;;;;;;23.18;10.82;;;;;;;3.39;82.40;99630.00;1736505;82;21210;-76
2020/12/30 10:49:26;;;;;;;21.85;11.15;;;;;;;3.42;82.36;99628.28;1742691;81;20933;-76
2020/12/30 10:51:52;;;;;;;22.77;10.20;;;;;;;3.47;82.38;99631.67;1740600;81;21020;-76
2020/12/30 10:54:20;;;;;;;16.97;9.90;;;;;;;3.52;82.36;99631.23;1739104;81;22204;-76
2020/12/30 10:56:47;;;;;;;19.10;8.83;;;;;;;3.56;82.33;99630.80;1736055;82;21746;-76
2020/12/30 10:59:17;;;;;;;16.12;9.63;;;;;;;3.61;82.24;99632.91;1743566;82;21154;-76
2020/12/30 11:01:44;;;;;;;21.05;10.75;;;;;;;3.64;82.17;99626.05;1757148;81;21199;-76
2020/12/30 11:04:10;;;;;;;18.07;9.85;;;;;;;3.70;82.17;99629.01;1756352;81;21175;-76
2020/12/30 11:06:39;;;;;;;25.32;10.85;;;;;;;3.74;82.15;99626.02;1732775;80;21528;-76
2020/12/30 11:09:07;;;;;;;21.12;10.23;;;;;;;3.79;82.19;99624.28;1738336;80;21253;-76
2020/12/30 11:11:34;;;;;;;16.55;10.15;;;;;;;3.84;82.22;99626.39;1777464;80;21178;-76
2020/12/30 11:14:00;;;;;;;17.35;9.75;;;;;;;3.88;82.09;99622.53;1778176;80;21166;-76
2020/12/30 11:16:27;;;;;;;23.47;11.97;;;;;;;3.91;82.05;99627.64;1770044;80;21727;-76
2020/12/30 11:18:53;;;;;;;21.40;10.70;;;;;;;3.94;82.04;99621.23;1769152;80;21191;-77
2020/12/30 11:21:19;;;;;;;19.37;9.80;;;;;;;3.98;82.00;99619.08;1769075;81;22266;-77
2020/12/30 11:23:45;;;;;;;18.90;10.50;;;;;;;4.03;81.98;99620.33;1770267;81;20932;-77
2020/12/30 11:26:12;;;;;;;18.32;9.78;;;;;;;4.08;81.94;99615.19;1770207;80;21881;-77
2020/12/30 11:28:38;;;;;;;20.37;10.05;;;;;;;4.11;81.89;99613.89;1769710;81;21218;-77
2020/12/30 11:31:05;;;;;;;22.17;10.75;;;;;;;4.15;81.82;99611.73;1770123;81;21219;-77
2020/12/30 11:33:31;;;;;;;18.67;10.40;;;;;;;4.18;81.83;99616.38;1769886;81;21271;-77
2020/12/30 11:35:57;;;;;;;17.53;10.33;;;;;;;4.20;81.78;99608.69;1771004;80;21599;-77
2020/12/30 11:38:23;;;;;;;12.60;7.58;;;;;;;4.20;81.73;99613.37;1770092;81;21230;-77
2020/12/30 11:40:49;;;;;;;16.85;7.72;;;;;;;4.23;81.69;99614.64;1770059;81;21198;-77
2020/12/30 11:43:15;;;;;;;17.27;8.50;;;;;;;4.25;81.65;99618.03;1756179;79;20924;-77